H. Lee White — WZD2465 — position and weather

sailwx.info

Track history (hours):
 
Tides and Currents Weather Stations Pressure Air Temp Water Temp Dewpoint Dewpoint Depression Visibility Wind Speed Wind Dir Waves Ship Positions

H. Lee White

Owner: AMERICAN STEAMSHIP COMPANY, WILLIAMSVILLE, NY. More information available from US FCC via Universal Licensing System and Coast Guard Vessel Documentation Center.

Last reported at 2016-Jun-28 07:00 UTC. Time now 2016-Jun-28 13:22 UTC.
Position N 41°54' W 082°30'.

Length 214 m; draft 7.3 m.

Type: Cargo ship. MMSI: 366938770.

Wind from 020 at 20 knots

Waves 1.5 meters (5 feet)

Barometer 405.5 mb
Air temperature 19.4 ° C
Water temperature 13.8 ° C

Date/timePositionNaut miles runAvg speedWind from/ knotsBaromVisibWave heightAir tempDewpointWater temp
2016-Jun-28 07:00N 41°54' W 082°30'   020 / 20405.5 1.519.4 13.8
2016-Jun-25 15:00N 41°54' W 082°48'110 8.5 060 / 41020.910.8 24.9
2016-Jun-25 02:00N 43°42' W 082°18'13010.0 110 / 81018.910.8 18.3 12.7
2016-Jun-24 13:00N 45°42' W 083°30'1629.0 330 / 31017.627.0 0.517.2
2016-Jun-24 12:26N 45°53' W 083°48'100 7.5
2016-Jun-23 23:00N 46°42' W 085°54'72 2.1 290 / 81015.9 5.4 15.5 6.6
2016-Jun-22 13:00N 47°12' W 087°30'9410.4 170 / 31014.827.0 15.5 3.8
2016-Jun-22 04:00N 47°18' W 089°48'2020.3 360 / 12270.1 1.014.9 2.2
2016-Jun-22 03:00N 47°18' W 090°18'5512.2 320 / 121011.527.0 0.515.5 1.6
2016-Jun-21 22:26N 46°56' W 091°33'1112.4
2016-Jun-21 21:33N 46°52' W 091°48'1212.2
2016-Jun-21 20:33N 46°47' W 092°04'3 3.3
2016-Jun-21 19:33N 46°44' W 092°05'0 0.0
2016-Jun-21 18:33N 46°44' W 092°05'0 0.0
2016-Jun-21 17:33N 46°44' W 092°05'0 0.0
2016-Jun-21 16:33N 46°44' W 092°05'0 0.0
2016-Jun-21 15:33N 46°44' W 092°05'0 0.0
2016-Jun-21 14:33N 46°44' W 092°05'0 0.0
2016-Jun-21 13:34N 46°44' W 092°05'0 0.0
2016-Jun-21 12:33N 46°44' W 092°05'0 0.1
2016-Jun-21 11:33N 46°44' W 092°04'2 1.8
2016-Jun-21 10:33N 46°46' W 092°06'0 0.1
2016-Jun-21 09:33N 46°46' W 092°06'7 7.4
2016-Jun-21 08:33N 46°50' W 091°57'1211.9
2016-Jun-21 07:33N 46°54' W 091°40'1211.9
2016-Jun-21 06:33N 46°58' W 091°24'2 3.1
2016-Jun-21 06:00N 47°00' W 091°24'14612.1 270 / 321016.0 1.513.3 -0.0
2016-Jun-20 18:00N 47°30' W 087°54'34 8.6 260 / 341012.0 1.514.9 1.6
2016-Jun-20 14:00N 47°06' W 087°18'12210.3 250 / 251009.810.8 1.015.5 2.2
2016-Jun-20 02:06N 46°28' W 084°28'39 5.9
2016-Jun-19 19:25N 45°56' W 083°56'1012.2
2016-Jun-19 18:33N 45°51' W 084°09'1212.3
2016-Jun-19 17:33N 45°51' W 084°27'1212.0
2016-Jun-19 16:33N 45°49' W 084°44'1212.5
2016-Jun-19 15:33N 45°51' W 085°02'814.2
2016-Jun-19 15:00N 45°54' W 085°12'511.6 200 / 171021.6 5.4 1.018.3 8.3
2016-Jun-19 14:33N 45°52' W 085°19'1212.1
2016-Jun-19 13:33N 45°54' W 085°36'1211.7
2016-Jun-19 12:33N 45°56' W 085°53'2 2.3
2016-Jun-19 11:33N 45°58' W 085°52'0 0.0
2016-Jun-19 10:33N 45°58' W 085°52'0 0.1
2016-Jun-19 09:33N 45°58' W 085°52'0 0.0
2016-Jun-19 08:33N 45°58' W 085°52'0 0.0
2016-Jun-19 07:33N 45°58' W 085°52'0 0.0
2016-Jun-19 06:33N 45°58' W 085°52'0 0.0
2016-Jun-19 05:33N 45°58' W 085°52'0 0.0
2016-Jun-19 04:33N 45°58' W 085°52'0 0.0
2016-Jun-19 03:33N 45°58' W 085°52'0 0.0
2016-Jun-19 02:33N 45°58' W 085°52'0 0.0
2016-Jun-19 01:33N 45°58' W 085°52'0 0.0
2016-Jun-19 00:33N 45°58' W 085°52'2 2.1
2016-Jun-18 23:33N 45°56' W 085°53'1 0.9
2016-Jun-18 22:33N 45°55' W 085°53'10 9.8
2016-Jun-18 21:33N 45°47' W 086°00'1312.6
2016-Jun-18 20:33N 45°37' W 086°11'1312.9
2016-Jun-18 19:33N 45°26' W 086°21'1312.9
2016-Jun-18 18:33N 45°16' W 086°32'1513.0
2016-Jun-18 17:23N 45°03' W 086°44'1113.1
2016-Jun-18 16:31N 44°52' W 086°49'1312.7
2016-Jun-18 15:30N 44°40' W 086°55'1712.2
2016-Jun-18 14:06N 44°24' W 087°02'758.0
2016-Jun-18 14:00N 44°18' W 087°06'6611.0 180 / 51024.0 18.3 7.7
2016-Jun-18 08:00N 43°12' W 087°12'   310 / 121021.3 5.4 17.7
Track history (hours):
 
Tides and Currents Weather Stations Pressure Air Temp Water Temp Dewpoint Dewpoint Depression Visibility Wind Speed Wind Dir Waves Ship Positions

H. Lee White

Owner: AMERICAN STEAMSHIP COMPANY, WILLIAMSVILLE, NY. More information available from US FCC via Universal Licensing System and Coast Guard Vessel Documentation Center.

Last reported at 2016-Jun-28 07:00 UTC. Time now 2016-Jun-28 13:22 UTC.
Position N 41°54' W 082°30'.

Length 214 m; draft 7.3 m.

Type: Cargo ship. MMSI: 366938770.

Wind from 020 at 20 knots

Waves 1.5 meters (5 feet)

Barometer 405.5 mb
Air temperature 19.4 ° C
Water temperature 13.8 ° C

Date/timePositionNaut miles runAvg speedWind from/ knotsBaromVisibWave heightAir tempDewpointWater temp
2016-Jun-28 07:00N 41°54' W 082°30'   020 / 20405.5 1.519.4 13.8
2016-Jun-25 15:00N 41°54' W 082°48'110 8.5 060 / 41020.910.8 24.9
2016-Jun-25 02:00N 43°42' W 082°18'13010.0 110 / 81018.910.8 18.3 12.7
2016-Jun-24 13:00N 45°42' W 083°30'1629.0 330 / 31017.627.0 0.517.2
2016-Jun-24 12:26N 45°53' W 083°48'100 7.5
2016-Jun-23 23:00N 46°42' W 085°54'72 2.1 290 / 81015.9 5.4 15.5 6.6
2016-Jun-22 13:00N 47°12' W 087°30'9410.4 170 / 31014.827.0 15.5 3.8
2016-Jun-22 04:00N 47°18' W 089°48'2020.3 360 / 12270.1 1.014.9 2.2
2016-Jun-22 03:00N 47°18' W 090°18'5512.2 320 / 121011.527.0 0.515.5 1.6
2016-Jun-21 22:26N 46°56' W 091°33'1112.4
2016-Jun-21 21:33N 46°52' W 091°48'1212.2
2016-Jun-21 20:33N 46°47' W 092°04'3 3.3
2016-Jun-21 19:33N 46°44' W 092°05'0 0.0
2016-Jun-21 18:33N 46°44' W 092°05'0 0.0
2016-Jun-21 17:33N 46°44' W 092°05'0 0.0
2016-Jun-21 16:33N 46°44' W 092°05'0 0.0
2016-Jun-21 15:33N 46°44' W 092°05'0 0.0
2016-Jun-21 14:33N 46°44' W 092°05'0 0.0
2016-Jun-21 13:34N 46°44' W 092°05'0 0.0
2016-Jun-21 12:33N 46°44' W 092°05'0 0.1
2016-Jun-21 11:33N 46°44' W 092°04'2 1.8
2016-Jun-21 10:33N 46°46' W 092°06'0 0.1
2016-Jun-21 09:33N 46°46' W 092°06'7 7.4
2016-Jun-21 08:33N 46°50' W 091°57'1211.9
2016-Jun-21 07:33N 46°54' W 091°40'1211.9
2016-Jun-21 06:33N 46°58' W 091°24'2 3.1
2016-Jun-21 06:00N 47°00' W 091°24'14612.1 270 / 321016.0 1.513.3 -0.0
2016-Jun-20 18:00N 47°30' W 087°54'34 8.6 260 / 341012.0 1.514.9 1.6
2016-Jun-20 14:00N 47°06' W 087°18'12210.3 250 / 251009.810.8 1.015.5 2.2
2016-Jun-20 02:06N 46°28' W 084°28'39 5.9
2016-Jun-19 19:25N 45°56' W 083°56'1012.2
2016-Jun-19 18:33N 45°51' W 084°09'1212.3
2016-Jun-19 17:33N 45°51' W 084°27'1212.0
2016-Jun-19 16:33N 45°49' W 084°44'1212.5
2016-Jun-19 15:33N 45°51' W 085°02'814.2
2016-Jun-19 15:00N 45°54' W 085°12'511.6 200 / 171021.6 5.4 1.018.3 8.3
2016-Jun-19 14:33N 45°52' W 085°19'1212.1
2016-Jun-19 13:33N 45°54' W 085°36'1211.7
2016-Jun-19 12:33N 45°56' W 085°53'2 2.3
2016-Jun-19 11:33N 45°58' W 085°52'0 0.0
2016-Jun-19 10:33N 45°58' W 085°52'0 0.1
2016-Jun-19 09:33N 45°58' W 085°52'0 0.0
2016-Jun-19 08:33N 45°58' W 085°52'0 0.0
2016-Jun-19 07:33N 45°58' W 085°52'0 0.0
2016-Jun-19 06:33N 45°58' W 085°52'0 0.0
2016-Jun-19 05:33N 45°58' W 085°52'0 0.0
2016-Jun-19 04:33N 45°58' W 085°52'0 0.0
2016-Jun-19 03:33N 45°58' W 085°52'0 0.0
2016-Jun-19 02:33N 45°58' W 085°52'0 0.0
2016-Jun-19 01:33N 45°58' W 085°52'0 0.0
2016-Jun-19 00:33N 45°58' W 085°52'2 2.1
2016-Jun-18 23:33N 45°56' W 085°53'1 0.9
2016-Jun-18 22:33N 45°55' W 085°53'10 9.8
2016-Jun-18 21:33N 45°47' W 086°00'1312.6
2016-Jun-18 20:33N 45°37' W 086°11'1312.9
2016-Jun-18 19:33N 45°26' W 086°21'1312.9
2016-Jun-18 18:33N 45°16' W 086°32'1513.0
2016-Jun-18 17:23N 45°03' W 086°44'1113.1
2016-Jun-18 16:31N 44°52' W 086°49'1312.7
2016-Jun-18 15:30N 44°40' W 086°55'1712.2
2016-Jun-18 14:06N 44°24' W 087°02'758.0
2016-Jun-18 14:00N 44°18' W 087°06'6611.0 180 / 51024.0 18.3 7.7
2016-Jun-18 08:00N 43°12' W 087°12'   310 / 121021.3 5.4 17.7

Dump ship's entire track history